Impacts TAF Board
For situational awareness. Not to be used for flight planning purposes.
IDs:

KOLS - Nogales Intl, AZ, US

Issued at 1120 UTC 30 Oct 2020
Updated at 1703 UTC 30 Oct 2020
Potential Impact None Slight Moderate High
Time1654Z 30/18Z 30/19Z 30/20Z 30/21Z 30/22Z 30/23Z 31/00Z 31/01Z 31/02Z 31/03Z 31/04Z 31/05Z 31/06Z>>
Type OBS PRVL PRVL PRVL PRVL PRVL PRVL PRVL PRVL PRVL PRVL PRVL PRVL PRVL
VIS 10 >6 >6 >6 >6 >6 >6 >6 >6 >6 >6 >6 >6 >6
CIG -- -- -- -- -- -- -- -- -- 250 250 250 250 250
Cover CLR SCT SCT SCT SCT SCT SCT SCT SCT BKN BKN BKN BKN BKN
FltCat VFR VFR VFR VFR VFR VFR VFR VFR VFR VFR VFR VFR VFR VFR
WX -- -- -- -- -- -- -- -- -- -- -- -- -- --
WDir VRB 240 240 240 240 240 240 240 240 60 60 60 60 60
WSpd 3 7 7 7 7 7 7 7 7 4 4 4 4 4
WGst -- -- -- -- -- -- -- -- -- -- -- -- -- --
Raw TAF
KOLS 301120Z 3012/3112 05005KT P6SM FEW250
  FM301800 24007KT P6SM SCT250
  FM310200 06004KT P6SM BKN250


Raw METAR
KOLS 301654Z AUTO VRB03KT 10SM CLR 20/M01 A3016 RMK AO2 SLP163 T02001011
KOLS 301554Z AUTO 00000KT 10SM CLR 17/M01 A3017 RMK AO2 SLP170 T01721011
KOLS 301454Z AUTO 00000KT 10SM CLR 12/M02 A3016 RMK AO2 SLP167 T01221022 53014

METAR Board
Radar Display
Forecast Discussion
For situational awareness. Not to be used for flight planning purposes.